Time;durP1;ratioP1;P1;durP2;ratioP2;P2;SDS_P1;SDS_P2;PMS_P1;PMS_P2;Temp;Humidity;BMP_temperature;BMP_pressure;BME280_temperature;BME280_humidity;BME280_pressure;Samples;Min_cycle;Max_cycle;Signal;HPM_P1;HPM_P2
2022/08/24 00:00:16;;;;;;;3.10;2.50;;;24.30;57.60;;;;;;5054734;28;20949;-69
2022/08/24 00:02:43;;;;;;;2.90;2.20;;;24.40;57.70;;;;;;5054339;28;20817;-69
2022/08/24 00:05:11;;;;;;;4.70;2.73;;;24.30;57.70;;;;;;5053813;28;20832;-69
2022/08/24 00:07:38;;;;;;;3.30;2.20;;;24.30;57.80;;;;;;5054785;28;20469;-69
2022/08/24 00:10:07;;;;;;;3.70;2.50;;;24.30;57.80;;;;;;5054592;28;20450;-69
2022/08/24 00:12:34;;;;;;;3.30;2.00;;;24.30;58.00;;;;;;5054181;28;21000;-69
2022/08/24 00:15:03;;;;;;;4.33;2.20;;;24.30;58.00;;;;;;5054438;28;20553;-69
2022/08/24 00:17:30;;;;;;;2.53;2.33;;;24.30;58.20;;;;;;5054505;28;20450;-69
2022/08/24 00:19:58;;;;;;;4.00;2.20;;;24.20;58.30;;;;;;5054367;28;20457;-69
2022/08/24 00:22:25;;;;;;;3.23;2.13;;;24.10;58.50;;;;;;5055637;28;20973;-68
2022/08/24 00:24:51;;;;;;;4.27;2.10;;;24.10;58.70;;;;;;5073877;28;20456;-68
2022/08/24 00:27:18;;;;;;;2.93;1.73;;;24.00;58.70;;;;;;5074061;28;20488;-68
2022/08/24 00:29:45;;;;;;;3.97;2.20;;;24.00;58.80;;;;;;5074189;28;20447;-68
2022/08/24 00:32:13;;;;;;;2.80;2.20;;;24.00;58.90;;;;;;5074012;28;20473;-68
2022/08/24 00:34:40;;;;;;;4.47;2.00;;;24.00;58.90;;;;;;5074078;28;20451;-69
2022/08/24 00:37:07;;;;;;;8.13;2.40;;;23.90;58.90;;;;;;5073877;28;20448;-68
2022/08/24 00:39:34;;;;;;;3.50;2.20;;;23.80;59.00;;;;;;5073946;28;20449;-68
2022/08/24 00:42:00;;;;;;;2.87;2.10;;;23.80;59.10;;;;;;5074134;28;20465;-68
2022/08/24 00:44:27;;;;;;;5.40;2.20;;;23.70;59.40;;;;;;5074665;28;20436;-68
2022/08/24 00:46:59;;;;;;;3.80;2.43;;;23.60;59.60;;;;;;5073763;28;20453;-68
2022/08/24 00:49:34;;;;;;;5.93;3.20;;;23.60;59.80;;;;;;5073952;28;20433;-68
2022/08/24 00:52:09;;;;;;;3.20;2.10;;;23.50;60.00;;;;;;5073963;28;20478;-68
2022/08/24 00:54:40;;;;;;;3.17;2.47;;;23.50;60.20;;;;;;5073648;28;20978;-68
2022/08/24 00:57:09;;;;;;;4.40;2.50;;;23.50;60.30;;;;;;5073590;28;20905;-68
2022/08/24 00:59:40;;;;;;;5.13;2.67;;;23.50;60.50;;;;;;5073683;28;20445;-68
2022/08/24 01:02:12;;;;;;;3.60;2.17;;;23.50;60.50;;;;;;5073677;28;20472;-69
2022/08/24 01:04:46;;;;;;;4.47;2.80;;;23.50;60.60;;;;;;5073807;28;20456;-69
2022/08/24 01:07:12;;;;;;;4.47;2.50;;;23.50;61.50;;;;;;5073731;28;20471;-68
2022/08/24 01:09:39;;;;;;;2.77;2.57;;;23.50;60.80;;;;;;5073419;28;20449;-68
2022/08/24 01:12:08;;;;;;;3.20;2.17;;;23.50;60.90;;;;;;5073211;28;20474;-68
2022/08/24 01:14:36;;;;;;;5.63;2.33;;;23.50;61.00;;;;;;5073098;28;20543;-69
2022/08/24 01:19:54;;;;;;;3.03;2.40;;;23.50;61.30;;;;;;5073703;28;20482;-69
2022/08/24 01:22:37;;;;;;;3.53;2.33;;;23.50;61.40;;;;;;5073589;28;20465;-69
2022/08/24 01:25:06;;;;;;;3.43;2.80;;;23.50;61.50;;;;;;5073101;28;20975;-68
2022/08/24 01:27:34;;;;;;;3.00;2.37;;;23.40;61.40;;;;;;5073630;28;20487;-68
2022/08/24 01:30:04;;;;;;;4.90;2.50;;;23.40;61.60;;;;;;5074287;28;20452;-68
2022/08/24 01:32:31;;;;;;;4.20;2.27;;;23.30;61.70;;;;;;5073372;28;20472;-69
2022/08/24 01:34:58;;;;;;;4.23;2.07;;;23.30;61.90;;;;;;5073219;28;20471;-69
2022/08/24 01:37:25;;;;;;;5.97;2.90;;;23.30;62.30;;;;;;5074160;28;20444;-69
2022/08/24 01:39:55;;;;;;;4.80;2.50;;;23.20;62.60;;;;;;5072866;28;20510;-68
2022/08/24 01:42:25;;;;;;;5.13;2.30;;;23.20;62.60;;;;;;5073352;28;20472;-69
2022/08/24 01:44:52;;;;;;;6.30;2.73;;;23.10;62.40;;;;;;5073193;28;20451;-69
2022/08/24 01:47:19;;;;;;;3.93;2.30;;;23.10;62.40;;;;;;5073264;28;20452;-69
2022/08/24 01:49:47;;;;;;;6.20;2.70;;;23.10;62.60;;;;;;5073189;28;20464;-68
2022/08/24 01:52:17;;;;;;;5.70;2.43;;;23.10;62.60;;;;;;5073231;28;20472;-69
2022/08/24 01:54:44;;;;;;;7.23;2.67;;;23.10;62.60;;;;;;5073158;28;20456;-68
2022/08/24 01:57:11;;;;;;;5.23;2.40;;;23.00;62.60;;;;;;5073083;28;20455;-68
2022/08/24 01:59:40;;;;;;;10.57;2.90;;;23.00;62.70;;;;;;5073000;28;20448;-68
2022/08/24 02:02:12;;;;;;;4.20;2.67;;;23.00;63.00;;;;;;5072982;28;20473;-69
2022/08/24 02:04:39;;;;;;;2.90;2.37;;;23.00;63.20;;;;;;5072707;28;20433;-68
2022/08/24 02:07:08;;;;;;;6.00;2.80;;;23.00;63.30;;;;;;5072838;28;20471;-68
2022/08/24 02:09:35;;;;;;;5.70;2.43;;;23.00;63.40;;;;;;5072653;28;20433;-69
2022/08/24 02:12:06;;;;;;;6.30;2.87;;;23.00;63.40;;;;;;5072774;28;20528;-69
2022/08/24 02:14:33;;;;;;;8.20;2.67;;;23.00;63.50;;;;;;5073229;28;20437;-68
2022/08/24 02:17:01;;;;;;;4.80;2.10;;;22.90;63.80;;;;;;5072827;28;20440;-69
2022/08/24 02:19:28;;;;;;;6.87;2.90;;;22.80;64.00;;;;;;5055019;28;20527;-68
2022/08/24 02:21:55;;;;;;;4.80;2.13;;;22.80;64.20;;;;;;5072664;28;20473;-68
2022/08/24 02:24:22;;;;;;;9.80;2.70;;;22.70;64.30;;;;;;5072283;28;20456;-69
2022/08/24 02:26:49;;;;;;;5.17;2.57;;;22.60;64.30;;;;;;5073770;28;20425;-69
2022/08/24 02:29:16;;;;;;;10.43;2.87;;;22.60;64.30;;;;;;5076251;28;20488;-68
2022/08/24 02:31:43;;;;;;;4.37;2.40;;;22.50;64.50;;;;;;5075855;28;20952;-68
2022/08/24 02:34:11;;;;;;;2.50;2.30;;;22.50;64.50;;;;;;5076187;28;20445;-68
2022/08/24 02:36:38;;;;;;;9.20;3.37;;;22.50;64.60;;;;;;5075840;28;20951;-69
2022/08/24 02:39:07;;;;;;;5.70;2.57;;;22.50;64.70;;;;;;5076130;28;20441;-68
2022/08/24 02:41:33;;;;;;;11.60;2.87;;;22.50;64.90;;;;;;5076362;28;20964;-68
2022/08/24 02:44:01;;;;;;;9.43;3.10;;;22.50;65.00;;;;;;5076901;28;20476;-69
2022/08/24 02:46:30;;;;;;;5.33;3.27;;;22.50;65.10;;;;;;5076428;28;20849;-68
2022/08/24 02:48:58;;;;;;;7.07;3.10;;;22.50;65.20;;;;;;5076168;28;20478;-68
2022/08/24 02:51:28;;;;;;;5.27;2.50;;;22.40;65.30;;;;;;5076380;28;20457;-68
2022/08/24 02:53:56;;;;;;;11.10;3.07;;;22.40;65.30;;;;;;5076597;28;20483;-68
2022/08/24 02:56:22;;;;;;;8.63;2.77;;;22.40;65.50;;;;;;5076256;28;20451;-68
2022/08/24 02:58:49;;;;;;;5.07;2.77;;;22.40;65.70;;;;;;5075698;28;20441;-68
2022/08/24 03:01:17;;;;;;;7.13;3.93;;;22.40;65.70;;;;;;5075667;28;20441;-68
2022/08/24 03:03:45;;;;;;;4.70;3.33;;;22.40;65.80;;;;;;5076087;28;20465;-68
2022/08/24 03:06:12;;;;;;;6.33;2.70;;;22.40;65.90;;;;;;5075973;28;20500;-68
2022/08/24 03:08:40;;;;;;;9.00;3.13;;;22.40;66.40;;;;;;5075954;28;20503;-69
2022/08/24 03:11:08;;;;;;;7.93;3.20;;;22.40;66.20;;;;;;5075904;28;20449;-68
2022/08/24 03:13:35;;;;;;;7.10;3.17;;;22.30;66.20;;;;;;5075805;28;20469;-68
2022/08/24 03:16:03;;;;;;;5.43;2.80;;;22.30;66.40;;;;;;5075650;28;20448;-68
2022/08/24 03:18:29;;;;;;;9.43;3.20;;;22.30;66.70;;;;;;5075788;28;20447;-68
2022/08/24 03:21:01;;;;;;;4.50;2.80;;;22.30;66.80;;;;;;5075610;28;20448;-69
2022/08/24 03:23:28;;;;;;;5.33;2.90;;;22.30;67.00;;;;;;5064837;28;20529;-68
2022/08/24 03:25:58;;;;;;;7.73;2.70;;;22.30;67.10;;;;;;5055653;28;20517;-69
2022/08/24 03:28:25;;;;;;;5.80;3.30;;;22.20;67.10;;;;;;5055530;28;20521;-69
2022/08/24 03:30:52;;;;;;;7.90;3.03;;;22.20;67.40;;;;;;5055465;28;20962;-68
2022/08/24 03:33:20;;;;;;;6.90;3.50;;;22.20;67.60;;;;;;5055403;28;20508;-68
2022/08/24 03:35:47;;;;;;;5.30;2.93;;;22.10;68.60;;;;;;5055552;28;20442;-69
2022/08/24 03:38:14;;;;;;;8.73;3.10;;;22.00;67.50;;;;;;5055720;28;20537;-69
2022/08/24 03:40:42;;;;;;;8.40;3.60;;;21.90;67.30;;;;;;5055455;28;20473;-68
2022/08/24 03:43:44;;;;;;;8.37;2.90;;;21.90;67.10;;;;;;5055273;28;20472;-69
2022/08/24 03:46:00;;;;;;;5.60;3.07;;;21.80;67.00;;;;;;5054600;28;20528;-69
2022/08/24 03:48:27;;;;;;;5.87;2.60;;;21.80;67.00;;;;;;5055374;28;20535;-69
2022/08/24 03:50:54;;;;;;;6.10;3.27;;;21.70;67.10;;;;;;5054602;28;20878;-69
2022/08/24 03:53:21;;;;;;;8.20;3.20;;;21.70;67.40;;;;;;5054231;28;20462;-68
2022/08/24 03:55:48;;;;;;;7.83;3.40;;;21.70;67.60;;;;;;5054746;28;20452;-69
2022/08/24 03:58:16;;;;;;;5.00;2.77;;;21.70;67.80;;;;;;5054477;28;20530;-69
2022/08/24 04:00:44;;;;;;;4.73;3.23;;;21.60;68.00;;;;;;5054717;28;20446;-68
2022/08/24 04:03:11;;;;;;;7.20;2.80;;;21.60;68.30;;;;;;5054692;28;20489;-68
2022/08/24 04:05:39;;;;;;;5.37;3.00;;;21.60;68.60;;;;;;5054769;28;20446;-68
2022/08/24 04:08:06;;;;;;;5.47;2.77;;;21.60;68.60;;;;;;5054384;28;20493;-68
2022/08/24 04:10:34;;;;;;;5.20;2.97;;;21.60;68.80;;;;;;5054665;28;20449;-68
2022/08/24 04:13:01;;;;;;;4.50;2.77;;;21.60;69.00;;;;;;5054121;28;20842;-69
2022/08/24 04:15:30;;;;;;;6.77;2.77;;;21.60;69.00;;;;;;5055325;28;20517;-68
2022/08/24 04:17:58;;;;;;;11.40;3.00;;;21.60;69.00;;;;;;5054421;28;20520;-68
2022/08/24 04:20:24;;;;;;;3.37;2.90;;;21.60;69.00;;;;;;5054509;28;20441;-69
2022/08/24 04:22:51;;;;;;;5.07;2.93;;;21.60;69.20;;;;;;5054076;28;20465;-68
2022/08/24 04:25:18;;;;;;;11.63;2.90;;;21.70;69.60;;;;;;5054400;28;20437;-68
2022/08/24 04:27:45;;;;;;;7.97;3.40;;;21.70;69.70;;;;;;5054257;28;20456;-68
2022/08/24 04:30:13;;;;;;;8.10;3.00;;;21.60;69.80;;;;;;5054120;28;20481;-68
2022/08/24 04:32:41;;;;;;;9.87;3.30;;;21.70;70.20;;;;;;5054172;28;20557;-69
2022/08/24 04:35:09;;;;;;;13.17;3.77;;;21.70;70.40;;;;;;5053773;28;20985;-68
2022/08/24 04:37:36;;;;;;;9.90;4.17;;;21.60;70.30;;;;;;5054351;28;20449;-69
2022/08/24 04:40:06;;;;;;;13.40;3.70;;;21.70;70.60;;;;;;5053894;28;20872;-68
2022/08/24 04:42:33;;;;;;;10.47;3.80;;;21.60;70.70;;;;;;5053912;28;20469;-68
2022/08/24 04:44:59;;;;;;;13.00;3.70;;;21.70;71.00;;;;;;5053783;28;20825;-68
2022/08/24 04:47:29;;;;;;;12.83;4.10;;;21.70;71.00;;;;;;5054229;28;20827;-68
2022/08/24 04:49:57;;;;;;;9.40;3.30;;;21.70;71.30;;;;;;5054027;28;20573;-68
2022/08/24 04:52:23;;;;;;;8.63;4.30;;;21.70;71.50;;;;;;5053633;28;20478;-69
2022/08/24 04:54:50;;;;;;;11.17;3.73;;;21.70;71.80;;;;;;5053654;28;20452;-69
2022/08/24 04:57:17;;;;;;;14.07;3.37;;;21.70;71.70;;;;;;5053622;28;20437;-69
2022/08/24 04:59:44;;;;;;;12.10;4.47;;;21.70;71.80;;;;;;5053408;28;20804;-69
2022/08/24 05:02:11;;;;;;;11.50;4.43;;;21.60;71.80;;;;;;5053366;28;20997;-69
2022/08/24 05:04:38;;;;;;;10.73;5.00;;;21.70;71.90;;;;;;5053786;28;20458;-68
2022/08/24 05:07:07;;;;;;;12.80;4.10;;;21.70;72.10;;;;;;5053344;28;20453;-69
2022/08/24 05:09:33;;;;;;;9.37;3.47;;;21.70;71.70;;;;;;5053398;28;20481;-69
2022/08/24 05:12:00;;;;;;;10.23;4.30;;;21.60;71.70;;;;;;5053411;28;20476;-69
2022/08/24 05:14:27;;;;;;;10.33;3.60;;;21.60;71.70;;;;;;5053715;28;20449;-69
2022/08/24 05:16:54;;;;;;;9.43;3.90;;;21.60;71.90;;;;;;5053229;28;20431;-69
2022/08/24 05:19:22;;;;;;;16.20;5.00;;;21.50;71.80;;;;;;5052716;28;20449;-68
2022/08/24 05:21:49;;;;;;;15.83;5.30;;;21.60;72.10;;;;;;5053211;28;20453;-68
2022/08/24 05:24:18;;;;;;;8.70;3.63;;;21.50;72.00;;;;;;5053057;28;20850;-69
2022/08/24 05:26:45;;;;;;;12.53;3.73;;;21.50;72.00;;;;;;5053290;28;20829;-68
2022/08/24 05:29:13;;;;;;;15.83;6.07;;;21.50;72.00;;;;;;5053195;28;20488;-68
2022/08/24 05:31:43;;;;;;;13.23;3.73;;;21.50;72.30;;;;;;5053252;28;20552;-69
2022/08/24 05:34:10;;;;;;;11.77;4.00;;;21.50;72.20;;;;;;5053237;28;20438;-69
2022/08/24 05:36:39;;;;;;;13.63;4.20;;;21.50;72.40;;;;;;5054038;28;20450;-69
2022/08/24 05:39:08;;;;;;;12.97;4.40;;;21.50;72.70;;;;;;5053282;28;20454;-68
2022/08/24 05:41:37;;;;;;;24.20;4.90;;;21.50;73.10;;;;;;5053182;28;20461;-69
2022/08/24 05:44:04;;;;;;;11.57;4.00;;;21.60;73.60;;;;;;5053234;28;20446;-69
2022/08/24 05:46:31;;;;;;;21.63;4.67;;;21.60;73.80;;;;;;5053007;28;20453;-69
2022/08/24 05:48:58;;;;;;;13.17;5.17;;;21.60;74.00;;;;;;5052760;28;20477;-68
2022/08/24 05:51:26;;;;;;;10.30;5.60;;;21.60;74.10;;;;;;5052734;28;20942;-69
2022/08/24 05:53:52;;;;;;;13.53;4.67;;;21.70;74.40;;;;;;5052929;28;20465;-69
2022/08/24 05:56:20;;;;;;;18.93;5.17;;;21.70;74.60;;;;;;5052904;28;20445;-69
2022/08/24 05:58:49;;;;;;;15.73;5.57;;;21.70;74.80;;;;;;5052703;28;20992;-69
2022/08/24 06:01:19;;;;;;;13.60;5.70;;;21.80;75.00;;;;;;5053096;28;20488;-69
2022/08/24 06:03:47;;;;;;;23.00;7.23;;;21.80;75.00;;;;;;5056910;28;20473;-69
2022/08/24 06:06:15;;;;;;;25.70;9.77;;;21.90;75.40;;;;;;5056747;28;20445;-69
2022/08/24 06:08:44;;;;;;;35.77;10.60;;;22.00;75.70;;;;;;5056916;28;20451;-69
2022/08/24 06:11:12;;;;;;;28.77;11.00;;;22.10;75.70;;;;;;5056823;28;20433;-69
2022/08/24 06:13:40;;;;;;;39.50;14.20;;;22.20;75.80;;;;;;5056558;28;20480;-69
2022/08/24 06:16:11;;;;;;;38.37;11.03;;;22.20;75.80;;;;;;5056861;28;20524;-69
2022/08/24 06:18:39;;;;;;;30.80;11.30;;;22.30;75.50;;;;;;5056622;28;20980;-69
2022/08/24 06:21:07;;;;;;;29.13;10.13;;;22.40;75.40;;;;;;5056575;28;20452;-69
2022/08/24 06:23:34;;;;;;;26.67;10.93;;;22.50;75.50;;;;;;5057164;28;20504;-69
2022/08/24 06:28:46;;;;;;;23.43;7.47;;;22.60;76.10;;;;;;5056660;28;20410;-69
2022/08/24 06:31:14;;;;;;;19.40;6.37;;;22.70;76.50;;;;;;5056399;28;20441;-69
2022/08/24 06:33:41;;;;;;;18.27;6.83;;;22.80;76.30;;;;;;5056235;28;20473;-69
2022/08/24 06:36:08;;;;;;;15.03;6.17;;;22.90;74.90;;;;;;5056436;28;20446;-69
2022/08/24 06:38:36;;;;;;;10.53;4.87;;;23.00;74.70;;;;;;5056313;28;20458;-69
2022/08/24 06:41:03;;;;;;;10.37;4.77;;;23.10;73.50;;;;;;5056381;28;20827;-69
2022/08/24 06:43:30;;;;;;;9.60;4.20;;;23.20;73.30;;;;;;5056068;28;20465;-68
2022/08/24 06:45:58;;;;;;;13.87;4.50;;;23.30;73.60;;;;;;5055934;28;20456;-68
2022/08/24 06:48:26;;;;;;;11.17;4.10;;;23.40;73.00;;;;;;5055746;28;20984;-68
2022/08/24 06:50:54;;;;;;;10.87;5.07;;;23.50;72.80;;;;;;5055952;28;20486;-68
2022/08/24 06:53:21;;;;;;;10.27;5.10;;;23.70;71.90;;;;;;5056111;28;20466;-68
2022/08/24 06:55:49;;;;;;;6.90;4.60;;;23.80;71.80;;;;;;5055957;28;20441;-68
2022/08/24 06:58:16;;;;;;;14.67;5.60;;;23.90;71.60;;;;;;5056020;28;20453;-68
2022/08/24 07:00:43;;;;;;;7.13;4.33;;;24.00;70.40;;;;;;5055775;28;20954;-68
2022/08/24 07:03:10;;;;;;;13.47;5.03;;;24.10;69.30;;;;;;5055900;28;20466;-68
2022/08/24 07:05:38;;;;;;;12.60;4.50;;;24.30;68.40;;;;;;5056126;28;20446;-68
2022/08/24 07:08:06;;;;;;;8.57;4.90;;;24.40;67.50;;;;;;5055307;28;20966;-68
2022/08/24 07:10:33;;;;;;;10.00;4.80;;;24.50;66.90;;;;;;5055979;28;20482;-68
2022/08/24 07:13:00;;;;;;;12.10;5.17;;;24.70;66.00;;;;;;5055049;28;20474;-68
2022/08/24 07:15:27;;;;;;;14.40;5.67;;;24.80;64.70;;;;;;5055601;28;20450;-68
2022/08/24 07:17:54;;;;;;;10.17;4.37;;;24.90;63.90;;;;;;5055454;28;20454;-68
2022/08/24 07:20:21;;;;;;;9.80;4.23;;;25.00;62.30;;;;;;5055647;28;20441;-68
2022/08/24 07:22:49;;;;;;;8.73;3.93;;;25.10;61.30;;;;;;5054931;28;21041;-68
2022/08/24 07:25:16;;;;;;;6.27;4.20;;;25.30;60.20;;;;;;5055447;28;20442;-68
2022/08/24 07:27:43;;;;;;;5.23;3.93;;;25.40;59.60;;;;;;5055481;28;20845;-68
2022/08/24 07:30:10;;;;;;;10.73;4.03;;;25.60;58.70;;;;;;5055506;28;20470;-68
2022/08/24 07:32:37;;;;;;;9.03;4.60;;;25.80;57.80;;;;;;5055263;28;20476;-67
2022/08/24 07:35:04;;;;;;;7.13;4.40;;;25.90;56.40;;;;;;5055616;28;20507;-69
2022/08/24 07:37:31;;;;;;;5.00;4.13;;;26.10;54.30;;;;;;5055330;28;20459;-69
2022/08/24 07:39:59;;;;;;;7.13;4.03;;;26.10;52.90;;;;;;5055386;28;20448;-68
2022/08/24 07:42:26;;;;;;;7.07;4.03;;;26.30;53.50;;;;;;5055579;28;20479;-68
2022/08/24 07:44:53;;;;;;;9.37;4.13;;;26.40;53.50;;;;;;5056056;28;20430;-68
2022/08/24 07:47:20;;;;;;;6.40;4.80;;;26.60;53.30;;;;;;5055106;28;20549;-69
2022/08/24 07:49:48;;;;;;;22.03;5.83;;;26.80;51.50;;;;;;5054890;28;20489;-69
2022/08/24 07:52:14;;;;;;;20.03;5.40;;;27.00;51.60;;;;;;5055225;28;20841;-69
2022/08/24 07:54:41;;;;;;;10.40;5.97;;;27.20;51.50;;;;;;5055063;28;20450;-69
2022/08/24 07:57:09;;;;;;;22.67;5.33;;;27.40;50.90;;;;;;5054996;28;20446;-69
2022/08/24 07:59:36;;;;;;;28.13;6.60;;;27.60;50.80;;;;;;5054741;28;20453;-69
2022/08/24 08:02:04;;;;;;;28.70;7.27;;;27.80;50.10;;;;;;5054691;28;20476;-69
2022/08/24 08:04:31;;;;;;;31.03;6.20;;;28.10;50.00;;;;;;5054427;28;20449;-69
2022/08/24 08:06:59;;;;;;;16.77;6.00;;;28.30;48.50;;;;;;5055284;28;20453;-69
2022/08/24 08:09:27;;;;;;;23.30;6.37;;;28.50;47.80;;;;;;5055010;28;20477;-69
2022/08/24 08:11:54;;;;;;;22.33;7.00;;;28.80;47.30;;;;;;5054932;28;20446;-69
2022/08/24 08:14:22;;;;;;;21.93;6.40;;;29.00;47.20;;;;;;5054845;28;20434;-68
2022/08/24 08:16:49;;;;;;;12.73;5.10;;;29.30;46.70;;;;;;5054631;28;20465;-68
2022/08/24 08:19:16;;;;;;;13.17;5.40;;;29.50;45.70;;;;;;5054510;28;20580;-68
2022/08/24 08:24:29;;;;;;;24.50;6.13;;;30.10;44.00;;;;;;5053341;28;20944;-68
2022/08/24 08:26:58;;;;;;;9.80;4.13;;;30.30;43.60;;;;;;5054254;28;20450;-68
2022/08/24 08:29:27;;;;;;;4.93;3.53;;;30.60;43.40;;;;;;5054280;28;20454;-68
2022/08/24 08:31:54;;;;;;;9.33;3.77;;;30.80;41.60;;;;;;5053754;28;20446;-68
2022/08/24 08:34:22;;;;;;;8.83;4.30;;;31.00;40.80;;;;;;5054366;28;20537;-69
2022/08/24 08:36:49;;;;;;;10.33;4.90;;;31.30;41.30;;;;;;5053920;28;20957;-69
2022/08/24 08:39:18;;;;;;;5.80;3.93;;;31.50;39.70;;;;;;5054079;28;20456;-69
2022/08/24 08:42:16;;;;;;;8.60;4.30;;;31.70;39.00;;;;;;5054000;28;20457;-68
2022/08/24 08:45:09;;;;;;;8.40;4.57;;;31.90;39.50;;;;;;5054246;28;20432;-68
2022/08/24 08:48:10;;;;;;;7.63;3.83;;;32.20;38.90;;;;;;5054954;28;20441;-69
2022/08/24 08:50:56;;;;;;;8.27;3.93;;;32.50;37.90;;;;;;5054025;28;20468;-68
2022/08/24 08:53:48;;;;;;;9.73;5.17;;;32.80;38.00;;;;;;5053572;28;20980;-68
2022/08/24 08:56:22;;;;;;;18.87;4.80;;;33.10;38.20;;;;;;5053392;28;20929;-68
2022/08/24 08:59:00;;;;;;;4.90;4.40;;;33.40;37.50;;;;;;5053802;28;20550;-68
2022/08/24 09:01:35;;;;;;;9.83;4.03;;;33.70;37.20;;;;;;5053744;28;20465;-68
2022/08/24 09:04:26;;;;;;;10.53;4.67;;;33.90;36.70;;;;;;5053408;28;20515;-68
2022/08/24 09:07:26;;;;;;;11.90;5.30;;;34.10;36.20;;;;;;5053697;28;20429;-68
2022/08/24 09:10:22;;;;;;;14.23;4.43;;;34.30;36.10;;;;;;5010400;28;20492;-69
2022/08/24 09:13:03;;;;;;;7.00;4.60;;;34.60;35.70;;;;;;5047098;28;20823;-69
2022/08/24 09:15:45;;;;;;;9.00;4.20;;;34.90;34.80;;;;;;5053633;28;20425;-69
2022/08/24 09:18:25;;;;;;;158.70;22.30;;;35.20;34.20;;;;;;5053388;28;20906;-69
2022/08/24 09:21:34;;;;;;;43.23;9.97;;;35.30;33.70;;;;;;5053428;28;20425;-69
2022/08/24 09:24:17;;;;;;;27.33;6.43;;;35.40;33.40;;;;;;5046658;28;21017;-68
2022/08/24 09:26:51;;;;;;;7.97;4.37;;;35.50;33.40;;;;;;5053405;28;20936;-68
2022/08/24 09:29:23;;;;;;;23.87;7.03;;;35.60;32.00;;;;;;5053114;28;20432;-68
2022/08/24 09:32:00;;;;;;;12.27;4.30;;;35.70;32.50;;;;;;5053049;28;21001;-70
2022/08/24 09:34:35;;;;;;;6.37;4.17;;;35.90;33.30;;;;;;5053117;28;20925;-69
2022/08/24 09:37:26;;;;;;;7.60;4.03;;;36.20;33.00;;;;;;5056497;28;20433;-69
2022/08/24 09:40:01;;;;;;;20.17;4.70;;;36.50;32.80;;;;;;5058371;28;20422;-69
2022/08/24 09:43:13;;;;;;;12.67;4.87;;;36.70;31.90;;;;;;5057843;28;20562;-70
2022/08/24 09:46:25;;;;;;;10.50;4.50;;;37.10;31.50;;;;;;5057408;28;20210;-69
2022/08/24 09:49:27;;;;;;;10.13;4.70;;;37.50;30.60;;;;;;4985379;28;20202;-68
2022/08/24 09:52:26;;;;;;;9.50;4.15;;;37.80;30.30;;;;;;5057067;28;20694;-68
2022/08/24 09:55:09;;;;;;;13.75;4.78;;;38.20;29.90;;;;;;5057626;28;20186;-68
2022/08/24 09:57:51;;;;;;;11.90;3.95;;;38.60;29.30;;;;;;5057468;28;20187;-68
2022/08/24 10:00:23;;;;;;;7.13;3.85;;;38.90;29.10;;;;;;5057012;28;20225;-68
2022/08/24 10:03:22;;;;;;;3.53;3.05;;;39.20;28.60;;;;;;5056865;28;20241;-69
2022/08/24 10:06:03;;;;;;;8.70;4.15;;;39.50;27.90;;;;;;5056936;28;20195;-69
2022/08/24 10:08:43;;;;;;;5.35;2.80;;;39.70;27.00;;;;;;5057022;28;20186;-69
2022/08/24 10:11:20;;;;;;;7.88;4.15;;;39.80;26.60;;;;;;5056710;28;20221;-69
2022/08/24 10:13:55;;;;;;;16.02;4.70;;;40.00;26.40;;;;;;5056820;28;20229;-69
2022/08/24 10:16:37;;;;;;;6.88;3.33;;;40.00;26.70;;;;;;5056734;28;20187;-68
2022/08/24 10:19:18;;;;;;;13.32;4.70;;;40.00;26.30;;;;;;5057439;28;20191;-68
2022/08/24 10:21:56;;;;;;;7.47;2.53;;;40.00;26.50;;;;;;5056921;28;20183;-69
2022/08/24 10:24:35;;;;;;;3.50;2.58;;;40.20;25.60;;;;;;5056458;28;20210;-68
2022/08/24 10:27:16;;;;;;;2.55;2.33;;;40.50;25.30;;;;;;5056165;28;20278;-69
2022/08/24 10:30:08;;;;;;;4.18;3.13;;;40.80;25.30;;;;;;5056248;28;20217;-69
2022/08/24 10:32:48;;;;;;;5.30;2.65;;;41.20;24.80;;;;;;5053860;28;20223;-69
2022/08/24 10:35:21;;;;;;;3.42;2.90;;;41.60;24.40;;;;;;5056517;28;20546;-69
2022/08/24 10:41:34;;;;;;;3.45;2.30;;;42.50;23.10;;;;;;5056493;28;20228;-70
2022/08/24 10:44:29;;;;;;;4.82;2.05;;;43.10;22.70;;;;;;5056019;28;20753;-70
2022/08/24 10:46:59;;;;;;;4.93;2.90;;;43.50;22.00;;;;;;5055664;28;20210;-70
2022/08/24 10:50:14;;;;;;;3.70;2.70;;;44.10;21.50;;;;;;5055989;28;20190;-70
2022/08/24 10:53:04;;;;;;;6.78;2.28;;;44.70;20.80;;;;;;5055673;28;20725;-70
2022/08/24 10:55:33;;;;;;;4.03;2.83;;;45.40;20.30;;;;;;5055945;28;20561;-70
2022/08/24 10:58:19;;;;;;;5.30;2.53;;;45.80;19.30;;;;;;5056273;28;20214;-70
2022/08/24 11:00:46;;;;;;;3.55;2.67;;;46.30;19.00;;;;;;5056162;28;20187;-70
2022/08/24 11:03:17;;;;;;;4.22;1.95;;;46.60;18.60;;;;;;5056046;28;20226;-70
2022/08/24 11:05:47;;;;;;;4.60;2.63;;;47.00;18.10;;;;;;5056144;28;20244;-70
2022/08/24 11:08:20;;;;;;;10.15;3.13;;;47.40;18.20;;;;;;5055738;28;20643;-70
2022/08/24 11:11:05;;;;;;;3.13;2.40;;;47.70;18.10;;;;;;5056113;28;20210;-70
2022/08/24 11:13:36;;;;;;;3.65;2.85;;;48.20;17.30;;;;;;5056170;28;20233;-70
2022/08/24 11:16:05;;;;;;;8.30;2.92;;;48.50;17.00;;;;;;5055834;28;20221;-70
2022/08/24 11:18:49;;;;;;;4.63;2.53;;;48.80;17.00;;;;;;5055890;28;20205;-70
2022/08/24 11:21:36;;;;;;;5.60;2.80;;;49.10;17.00;;;;;;5055143;28;20697;-70
2022/08/24 11:24:06;;;;;;;3.70;2.20;;;49.40;17.00;;;;;;5055558;28;20213;-70
2022/08/24 11:26:50;;;;;;;9.30;3.35;;;49.60;16.40;;;;;;5055491;28;20199;-70
2022/08/24 11:29:18;;;;;;;5.90;3.13;;;49.90;16.10;;;;;;5055462;28;20197;-70
2022/08/24 11:31:49;;;;;;;7.85;2.53;;;50.20;15.60;;;;;;5055603;28;20219;-70
2022/08/24 11:34:18;;;;;;;5.03;2.40;;;50.30;15.40;;;;;;5055380;28;20190;-70
2022/08/24 11:36:45;;;;;;;4.38;2.78;;;50.50;15.30;;;;;;5055114;28;20207;-70
2022/08/24 11:39:16;;;;;;;2.92;2.63;;;50.60;14.90;;;;;;5055102;28;20198;-70
2022/08/24 11:41:53;;;;;;;4.78;2.72;;;50.80;15.20;;;;;;5054860;28;20190;-70
2022/08/24 11:44:37;;;;;;;4.72;2.38;;;51.10;14.50;;;;;;5055083;28;20197;-70
2022/08/24 11:47:26;;;;;;;6.00;2.70;;;51.20;14.30;;;;;;5055124;28;20186;-70
2022/08/24 11:50:00;;;;;;;5.65;2.70;;;51.40;14.60;;;;;;5055104;28;20198;-70
2022/08/24 11:52:37;;;;;;;3.92;2.25;;;51.60;14.40;;;;;;5054850;28;20231;-71
2022/08/24 11:55:12;;;;;;;3.50;2.17;;;51.80;12.70;;;;;;5055443;28;20198;-70
2022/08/24 11:57:44;;;;;;;4.50;2.88;;;52.00;13.50;;;;;;5054549;28;20669;-70
2022/08/24 12:00:17;;;;;;;3.33;2.55;;;52.10;13.30;;;;;;5054965;28;20567;-71
2022/08/24 12:02:55;;;;;;;2.95;2.30;;;52.20;13.10;;;;;;5054704;28;20256;-70
2022/08/24 12:05:29;;;;;;;2.80;2.15;;;52.70;13.20;;;;;;5054709;28;20198;-70
2022/08/24 12:08:09;;;;;;;2.25;1.98;;;53.20;11.80;;;;;;5054588;28;20225;-70
2022/08/24 12:10:44;;;;;;;2.13;1.95;;;52.90;10.90;;;;;;5054669;28;20211;-70
2022/08/24 12:13:25;;;;;;;3.45;2.10;;;52.30;11.90;;;;;;5055508;28;20234;-70
2022/08/24 12:16:01;;;;;;;3.22;2.05;;;51.60;12.10;;;;;;5054794;28;20265;-70
2022/08/24 12:18:33;;;;;;;2.20;1.88;;;51.00;12.00;;;;;;5054364;28;20198;-70
2022/08/24 12:21:00;;;;;;;4.38;1.90;;;50.60;12.60;;;;;;5054511;28;20183;-70
2022/08/24 12:23:36;;;;;;;4.28;1.77;;;50.80;12.80;;;;;;5064871;28;20226;-70
2022/08/24 12:26:07;;;;;;;5.82;2.13;;;51.10;13.20;;;;;;5074331;28;20560;-70
2022/08/24 12:28:38;;;;;;;7.43;2.42;;;51.30;13.70;;;;;;5074398;28;20190;-70
2022/08/24 12:31:12;;;;;;;2.85;1.80;;;51.10;13.70;;;;;;5074199;28;20593;-71
2022/08/24 12:33:46;;;;;;;3.50;2.00;;;50.40;14.10;;;;;;5074065;28;20225;-71
2022/08/24 12:36:21;;;;;;;10.85;2.67;;;49.50;14.30;;;;;;5073771;28;20186;-70
2022/08/24 12:38:57;;;;;;;6.40;2.42;;;49.10;15.00;;;;;;5073951;28;20186;-70
2022/08/24 12:41:28;;;;;;;5.00;2.40;;;49.20;15.20;;;;;;5074005;28;20189;-70
2022/08/24 12:44:02;;;;;;;7.85;3.40;;;49.50;14.50;;;;;;5074034;28;20226;-70
2022/08/24 12:46:30;;;;;;;10.25;3.17;;;50.20;14.80;;;;;;5074000;28;20662;-71
2022/08/24 12:49:02;;;;;;;3.08;1.80;;;50.90;14.00;;;;;;5073920;28;20688;-71
2022/08/24 12:52:04;;;;;;;2.90;1.95;;;51.70;13.70;;;;;;5073891;28;20233;-70
2022/08/24 12:54:49;;;;;;;5.95;2.03;;;52.50;12.90;;;;;;5073566;28;20557;-70
2022/08/24 12:57:28;;;;;;;4.78;2.33;;;52.20;12.90;;;;;;5074128;28;20193;-70
2022/08/24 12:59:57;;;;;;;2.80;1.90;;;51.90;13.40;;;;;;5073693;28;20192;-70
2022/08/24 13:02:32;;;;;;;4.03;2.60;;;52.20;13.20;;;;;;5074057;28;20248;-70
2022/08/24 13:05:04;;;;;;;3.25;2.03;;;52.70;12.80;;;;;;5073894;28;20189;-70
2022/08/24 13:07:39;;;;;;;2.25;1.65;;;53.30;11.80;;;;;;5073277;28;20182;-70
2022/08/24 13:10:13;;;;;;;2.65;2.10;;;53.80;11.60;;;;;;5073404;28;20182;-70
2022/08/24 13:13:09;;;;;;;8.43;2.17;;;54.30;11.70;;;;;;5074227;28;20225;-70
2022/08/24 13:16:00;;;;;;;2.95;2.10;;;54.70;10.30;;;;;;5070880;28;20720;-70
2022/08/24 13:19:09;;;;;;;1.52;1.42;;;54.90;10.30;;;;;;5073435;28;20222;-70